x

Buoy B01 - Western Maine Shelf (44030) Weather Station

11:04am - Sun 14th Feb 2016 All times are EST. -5 hours from GMT.

  • Wind
    11mph, 20mph gusts
  • Sea Temp 41°f
  • Air Temp 4°f
  • Sea Pressure 1026.4mb
  • Buoy B01 - Western Maine Shelf
  • Buoy B01 - Western Maine Shelf

More Historic Weather Station data

Upgrade to MSW Pro to gain access to the past 30 days of data for over 8000 Wavebouys and Weather Stations around the globe.

Join Pro

Comparision Forecast

View Surf forecast
   
Sun 02/14 11:04am  -   -  11 20 mph 1026.4mb 41f 4f
10:04am  -   -  13 18 mph 1026.3mb 41f 2f
9:04am 3.5ft 3s 13 18 mph 1025.8mb 41f 1f
8:04am 2.5ft 3s 13 16 mph 1025.6mb 41f -1f
7:04am 2.5ft 4s 16 20 mph 1024.2mb 41f -1f
6:04am 4ft 4s 16 18 mph 1022.6mb 41f -2f
3:04am 4ft 4s 20 25 mph 1019.2mb 41f -2f
2:04am 2.5ft 4s 18 25 mph 1019.1mb 41f -3f
1:04am 4ft 4s 18 25 mph 1018.7mb 41f -3f
12:04am 4.5ft 4s 18 25 mph 1018.4mb 41f -2f
Sat 02/13 11:04pm 4.5ft 5s 20 27 mph 1018.3mb 41f -1f
10:04pm 4.5ft 5s 25 31 mph 1018.5mb 41f 1f
9:04pm 4.5ft 5s 29 38 mph 1018.1mb 41f 3f
8:04pm 4.5ft 5s 27 36 mph 1017.3mb 41f 6f
7:04pm 6ft 5s 27 36 mph 1016.2mb 40f 9f
6:04pm 5ft 5s 34 45 mph 1014.8mb 40f 11f
5:04pm 4ft 5s 31 43 mph 1012.6mb 40f 15f
4:04pm 3.5ft 4s 29 36 mph 1011.1mb 40f 17f
3:04pm 4.5ft 5s 36 45 mph 1009.5mb 40f 19f
2:04pm 3.5ft 4s 27 34 mph 1008.3mb 40f 21f
1:04pm 4ft 4s 22 27 mph 1007.8mb 40f 22f
12:04pm 3ft 4s 25 31 mph 1007.7mb 40f 23f
11:04am 3ft 4s 20 25 mph 1007.7mb 40f 23f
10:04am 2ft 3s 20 25 mph 1007.7mb 40f 21f
9:04am 1.6ft 3s 18 22 mph 1008.1mb 41f 22f
8:04am 2ft 8s 16 18 mph 1008.3mb 41f 21f
7:04am 1.6ft 8s 11 13 mph 1008.1mb 41f 22f
6:04am 2.5ft 11s 9 11 mph 1008.1mb 41f 22f
5:04am  -   -  11 16 mph 1008.2mb 41f 22f
4:04am 2.5ft 11s 13 16 mph 1008mb 41f 23f
3:04am 1.6ft 4s 13 18 mph 1008.7mb 41f 23f
2:04am 1.6ft 4s 13 18 mph 1009.9mb 41f 23f
1:04am 1.6ft 3s 13 16 mph 1010.7mb 41f 24f
12:04am 1.6ft 4s 13 18 mph 1011.8mb 41f 24f
Fri 02/12 11:04pm 1.6ft 4s 13 18 mph 1012.1mb 41f 24f
10:04pm 2ft 3s 11 16 mph 1012.8mb 41f 25f
9:04pm 1.6ft 3s 13 20 mph 1013.8mb 41f 25f
8:04pm 2ft 4s 13 20 mph 1014.8mb 41f 25f
7:04pm 3ft 11s 16 20 mph 1015.7mb 41f 25f
6:04pm  -   -  13 16 mph 1016.2mb 41f 24f
5:04pm 2ft 11s 13 18 mph 1016.3mb 41f 24f
4:04pm  -   -  11 18 mph 1016.7mb 41f 22f
3:04pm 2ft 11s 9 13 mph 1016.8mb 41f 21f
2:04pm 1.3ft 3s 11 18 mph 1017mb 41f 20f
1:04pm 1.6ft 3s 13 18 mph 1017.6mb 41f 20f
12:04pm 1.6ft 4s 9 16 mph 1018.6mb 41f 18f
11:04am 2.5ft 4s 13 18 mph 1019.4mb 41f 15f
10:04am 3ft 4s 18 22 mph 1020.3mb 41f 13f
9:04am 3.5ft 4s 22 29 mph 1020.3mb 42f 12f
8:04am 3.5ft 4s 22 29 mph 1020.6mb 42f 10f
7:04am 4ft 4s 25 31 mph 1019.2mb 42f 10f
6:04am 3.5ft 4s 22 34 mph 1018.7mb 42f 10f
5:04am 3ft 4s 22 29 mph 1018.5mb 42f 10f
4:04am 3.5ft 4s 22 31 mph 1017.7mb 42f 10f
3:04am 4ft 4s 22 29 mph 1017.2mb 42f 9f
2:04am 4ft 4s 27 36 mph 1015.7mb 42f 10f
1:04am 4.5ft 4s 27 40 mph 1015mb 42f 11f
12:04am 4ft 4s 27 36 mph 1014mb 42f 13f
Thu 02/11 10:04pm 3.5ft 4s 27 34 mph 1012.1mb 42f 16f
9:04pm 4.5ft 4s 31 36 mph 1011.3mb 42f 18f
8:04pm 3.5ft 4s 31 36 mph 1010mb 41f 21f
7:04pm 3.5ft 4s 27 34 mph 1008.5mb 41f 23f
6:04pm 4ft 4s 27 31 mph 1007.2mb 41f 24f
5:04pm  -   -  25 31 mph 1005.7mb 41f 26f
4:04pm 2.5ft 3s 22 29 mph 1004.4mb 42f 28f
3:04pm 2.5ft 4s 22 29 mph 1003.8mb 42f 26f
2:04pm 2.5ft 3s 20 27 mph 1003.2mb 42f 26f
1:04pm 1.6ft 3s 16 20 mph 1003.1mb 42f 27f
12:04pm 1.6ft 3s 9 13 mph 1003.4mb 42f 28f
11:04am 1.6ft 3s 11 16 mph 1004mb 41f 29f
10:04am  -   -  13 16 mph 1004mb 42f 28f
9:04am 1.3ft 3s 11 13 mph 1004.4mb 41f 27f
8:04am 1.6ft 3s 16 20 mph 1003.8mb 41f 27f
7:04am  -   -  18 22 mph 1004.1mb 42f 27f
6:04am 4ft 11s 16 20 mph 1003.2mb 42f 28f
5:04am  -   -  18 22 mph 1002.9mb 42f 28f
4:04am  -   -  18 25 mph 1002.5mb 42f 29f
3:04am 5ft 11s 18 22 mph 1002.1mb 42f 30f
2:04am 2.5ft 3s 18 22 mph 1001.8mb 42f 31f
1:04am 2.5ft 3s 20 25 mph 1001.4mb 42f 32f
12:04am 2.5ft 3s 20 25 mph 1001.2mb 42f 33f
Wed 02/10 11:04pm 2.5ft 4s 20 25 mph 1000.9mb 42f 33f
10:04pm 4.5ft 11s 20 25 mph 1000.7mb 42f 35f
9:04pm  -   -  18 22 mph 1001mb 42f 36f
8:04pm 4.5ft 11s 16 20 mph 1001.2mb 42f 36f
7:04pm 5ft 11s 13 18 mph 1001.4mb 42f 35f
6:04pm 5ft 11s 11 13 mph 1001.3mb 42f 35f